sensor_id;sensor_type;location;lat;lon;timestamp;temperature;humidity
69006;SHT31;56061;51.748;19.620;2022-07-29T00:02:14;12.22;75.00
69006;SHT31;56061;51.748;19.620;2022-07-29T00:04:40;12.22;75.10
69006;SHT31;56061;51.748;19.620;2022-07-29T00:07:07;12.27;75.50
69006;SHT31;56061;51.748;19.620;2022-07-29T00:09:35;12.33;75.31
69006;SHT31;56061;51.748;19.620;2022-07-29T00:12:16;12.36;74.90
69006;SHT31;56061;51.748;19.620;2022-07-29T00:14:51;12.37;75.14
69006;SHT31;56061;51.748;19.620;2022-07-29T00:17:20;12.35;75.17
69006;SHT31;56061;51.748;19.620;2022-07-29T00:19:47;12.32;75.15
69006;SHT31;56061;51.748;19.620;2022-07-29T00:22:14;12.26;75.19
69006;SHT31;56061;51.748;19.620;2022-07-29T00:24:40;12.20;75.16
69006;SHT31;56061;51.748;19.620;2022-07-29T00:27:07;12.15;75.07
69006;SHT31;56061;51.748;19.620;2022-07-29T00:29:34;12.14;75.21
69006;SHT31;56061;51.748;19.620;2022-07-29T00:32:01;12.17;75.78
69006;SHT31;56061;51.748;19.620;2022-07-29T00:34:29;12.23;75.60
69006;SHT31;56061;51.748;19.620;2022-07-29T00:37:15;12.28;75.93
69006;SHT31;56061;51.748;19.620;2022-07-29T00:39:42;12.35;76.22
69006;SHT31;56061;51.748;19.620;2022-07-29T00:42:09;12.40;75.71
69006;SHT31;56061;51.748;19.620;2022-07-29T00:44:39;12.39;75.44
69006;SHT31;56061;51.748;19.620;2022-07-29T00:47:08;12.35;75.69
69006;SHT31;56061;51.748;19.620;2022-07-29T00:49:37;12.29;76.00
69006;SHT31;56061;51.748;19.620;2022-07-29T00:52:07;12.24;76.23
69006;SHT31;56061;51.748;19.620;2022-07-29T00:54:36;12.18;76.15
69006;SHT31;56061;51.748;19.620;2022-07-29T00:57:10;12.12;76.06
69006;SHT31;56061;51.748;19.620;2022-07-29T00:59:37;12.07;76.12
69006;SHT31;56061;51.748;19.620;2022-07-29T01:02:04;12.03;76.10
69006;SHT31;56061;51.748;19.620;2022-07-29T01:04:31;12.00;76.10
69006;SHT31;56061;51.748;19.620;2022-07-29T01:07:00;11.94;76.22
69006;SHT31;56061;51.748;19.620;2022-07-29T01:09:29;11.86;76.33
69006;SHT31;56061;51.748;19.620;2022-07-29T01:12:12;11.81;76.64
69006;SHT31;56061;51.748;19.620;2022-07-29T01:14:43;11.77;76.56
69006;SHT31;56061;51.748;19.620;2022-07-29T01:17:12;11.70;76.51
69006;SHT31;56061;51.748;19.620;2022-07-29T01:19:48;11.66;76.60
69006;SHT31;56061;51.748;19.620;2022-07-29T01:31:11;11.60;76.36
69006;SHT31;56061;51.748;19.620;2022-07-29T01:33:55;11.59;75.95
69006;SHT31;56061;51.748;19.620;2022-07-29T01:36:32;11.54;75.90
69006;SHT31;56061;51.748;19.620;2022-07-29T01:39:40;11.49;76.58
69006;SHT31;56061;51.748;19.620;2022-07-29T01:47:40;11.61;77.26
69006;SHT31;56061;51.748;19.620;2022-07-29T01:50:16;11.63;76.59
69006;SHT31;56061;51.748;19.620;2022-07-29T01:52:52;11.61;76.45
69006;SHT31;56061;51.748;19.620;2022-07-29T01:55:26;11.58;76.65
69006;SHT31;56061;51.748;19.620;2022-07-29T01:57:57;11.56;76.39
69006;SHT31;56061;51.748;19.620;2022-07-29T02:00:27;11.51;76.33
69006;SHT31;56061;51.748;19.620;2022-07-29T02:02:55;11.41;76.47
69006;SHT31;56061;51.748;19.620;2022-07-29T02:05:25;11.31;76.70
69006;SHT31;56061;51.748;19.620;2022-07-29T02:07:55;11.25;76.98
69006;SHT31;56061;51.748;19.620;2022-07-29T02:13:13;11.11;77.34
69006;SHT31;56061;51.748;19.620;2022-07-29T02:15:43;11.06;77.37
69006;SHT31;56061;51.748;19.620;2022-07-29T02:18:15;11.02;77.24
69006;SHT31;56061;51.748;19.620;2022-07-29T02:20:45;11.00;77.40
69006;SHT31;56061;51.748;19.620;2022-07-29T02:23:18;10.98;77.58
69006;SHT31;56061;51.748;19.620;2022-07-29T02:25:48;10.96;77.45
69006;SHT31;56061;51.748;19.620;2022-07-29T02:28:18;10.96;77.61
69006;SHT31;56061;51.748;19.620;2022-07-29T02:30:50;10.93;77.64
69006;SHT31;56061;51.748;19.620;2022-07-29T02:33:21;10.90;77.72
69006;SHT31;56061;51.748;19.620;2022-07-29T02:35:51;10.88;77.81
69006;SHT31;56061;51.748;19.620;2022-07-29T02:38:19;10.87;77.81
69006;SHT31;56061;51.748;19.620;2022-07-29T02:41:11;10.84;77.57
69006;SHT31;56061;51.748;19.620;2022-07-29T02:43:43;10.81;77.77
69006;SHT31;56061;51.748;19.620;2022-07-29T02:46:17;10.79;77.80
69006;SHT31;56061;51.748;19.620;2022-07-29T02:48:56;10.76;77.75
69006;SHT31;56061;51.748;19.620;2022-07-29T02:51:58;10.74;77.79
69006;SHT31;56061;51.748;19.620;2022-07-29T02:54:31;10.69;77.79
69006;SHT31;56061;51.748;19.620;2022-07-29T02:58:03;10.63;77.73
69006;SHT31;56061;51.748;19.620;2022-07-29T03:00:20;10.60;77.64
69006;SHT31;56061;51.748;19.620;2022-07-29T03:02:53;10.60;77.92
69006;SHT31;56061;51.748;19.620;2022-07-29T03:05:24;10.66;78.35
69006;SHT31;56061;51.748;19.620;2022-07-29T03:07:53;10.74;78.15
69006;SHT31;56061;51.748;19.620;2022-07-29T03:10:26;10.78;77.87
69006;SHT31;56061;51.748;19.620;2022-07-29T03:12:55;10.80;77.87
69006;SHT31;56061;51.748;19.620;2022-07-29T03:15:24;10.82;78.02
69006;SHT31;56061;51.748;19.620;2022-07-29T03:17:52;10.82;78.16
69006;SHT31;56061;51.748;19.620;2022-07-29T03:20:21;10.81;78.32
69006;SHT31;56061;51.748;19.620;2022-07-29T03:22:48;10.80;78.36
69006;SHT31;56061;51.748;19.620;2022-07-29T03:25:16;10.79;78.46
69006;SHT31;56061;51.748;19.620;2022-07-29T03:27:46;10.80;78.71
69006;SHT31;56061;51.748;19.620;2022-07-29T03:30:13;10.83;78.91
69006;SHT31;56061;51.748;19.620;2022-07-29T03:32:47;10.88;79.19
69006;SHT31;56061;51.748;19.620;2022-07-29T03:35:17;10.91;79.63
69006;SHT31;56061;51.748;19.620;2022-07-29T03:37:48;10.93;79.95
69006;SHT31;56061;51.748;19.620;2022-07-29T03:40:22;10.96;79.99
69006;SHT31;56061;51.748;19.620;2022-07-29T03:42:57;10.98;80.18
69006;SHT31;56061;51.748;19.620;2022-07-29T03:45:26;11.00;80.19
69006;SHT31;56061;51.748;19.620;2022-07-29T03:48:01;11.03;80.26
69006;SHT31;56061;51.748;19.620;2022-07-29T03:50:34;11.10;80.13
69006;SHT31;56061;51.748;19.620;2022-07-29T03:53:02;11.15;80.16
69006;SHT31;56061;51.748;19.620;2022-07-29T03:55:31;11.24;80.17
69006;SHT31;56061;51.748;19.620;2022-07-29T03:58:06;11.34;80.20
69006;SHT31;56061;51.748;19.620;2022-07-29T04:00:34;11.44;80.13
69006;SHT31;56061;51.748;19.620;2022-07-29T04:03:02;11.57;79.93
69006;SHT31;56061;51.748;19.620;2022-07-29T04:05:36;11.68;79.87
69006;SHT31;56061;51.748;19.620;2022-07-29T04:08:02;11.77;79.74
69006;SHT31;56061;51.748;19.620;2022-07-29T04:10:29;11.84;79.98
69006;SHT31;56061;51.748;19.620;2022-07-29T04:12:57;11.93;80.10
69006;SHT31;56061;51.748;19.620;2022-07-29T04:15:25;12.01;80.13
69006;SHT31;56061;51.748;19.620;2022-07-29T04:17:56;12.11;80.17
69006;SHT31;56061;51.748;19.620;2022-07-29T04:20:23;12.25;80.16
69006;SHT31;56061;51.748;19.620;2022-07-29T04:22:50;12.38;80.08
69006;SHT31;56061;51.748;19.620;2022-07-29T04:25:17;12.52;79.85
69006;SHT31;56061;51.748;19.620;2022-07-29T04:27:43;12.66;79.77
69006;SHT31;56061;51.748;19.620;2022-07-29T04:30:28;12.84;79.76
69006;SHT31;56061;51.748;19.620;2022-07-29T04:32:58;12.97;79.71
69006;SHT31;56061;51.748;19.620;2022-07-29T04:35:27;13.09;79.58
69006;SHT31;56061;51.748;19.620;2022-07-29T04:38:03;13.21;79.53
69006;SHT31;56061;51.748;19.620;2022-07-29T04:40:32;13.31;79.48
69006;SHT31;56061;51.748;19.620;2022-07-29T04:43:04;13.42;79.48
69006;SHT31;56061;51.748;19.620;2022-07-29T04:45:31;13.53;79.46
69006;SHT31;56061;51.748;19.620;2022-07-29T04:47:57;13.64;79.25
69006;SHT31;56061;51.748;19.620;2022-07-29T04:50:24;13.75;79.14
69006;SHT31;56061;51.748;19.620;2022-07-29T04:52:50;13.87;79.03
69006;SHT31;56061;51.748;19.620;2022-07-29T04:55:17;13.98;78.82
69006;SHT31;56061;51.748;19.620;2022-07-29T04:57:44;14.08;78.71
69006;SHT31;56061;51.748;19.620;2022-07-29T05:00:11;14.19;78.60
69006;SHT31;56061;51.748;19.620;2022-07-29T05:02:38;14.26;78.47
69006;SHT31;56061;51.748;19.620;2022-07-29T05:05:05;14.35;78.54
69006;SHT31;56061;51.748;19.620;2022-07-29T05:07:32;14.42;78.17
69006;SHT31;56061;51.748;19.620;2022-07-29T05:09:59;14.50;78.09
69006;SHT31;56061;51.748;19.620;2022-07-29T05:12:25;14.60;78.02
69006;SHT31;56061;51.748;19.620;2022-07-29T05:14:52;14.69;77.86
69006;SHT31;56061;51.748;19.620;2022-07-29T05:17:19;14.79;77.46
69006;SHT31;56061;51.748;19.620;2022-07-29T05:19:46;14.91;77.33
69006;SHT31;56061;51.748;19.620;2022-07-29T05:22:12;15.02;77.21
69006;SHT31;56061;51.748;19.620;2022-07-29T05:24:39;15.13;77.08
69006;SHT31;56061;51.748;19.620;2022-07-29T05:27:06;15.22;76.63
69006;SHT31;56061;51.748;19.620;2022-07-29T05:29:34;15.30;76.51
69006;SHT31;56061;51.748;19.620;2022-07-29T05:32:10;15.40;76.13
69006;SHT31;56061;51.748;19.620;2022-07-29T05:34:38;15.51;75.80
69006;SHT31;56061;51.748;19.620;2022-07-29T05:37:17;15.63;75.71
69006;SHT31;56061;51.748;19.620;2022-07-29T05:39:46;15.76;75.71
69006;SHT31;56061;51.748;19.620;2022-07-29T05:42:22;15.89;75.03
69006;SHT31;56061;51.748;19.620;2022-07-29T05:44:52;16.00;74.87
69006;SHT31;56061;51.748;19.620;2022-07-29T05:47:19;16.12;74.85
69006;SHT31;56061;51.748;19.620;2022-07-29T05:49:46;16.27;74.69
69006;SHT31;56061;51.748;19.620;2022-07-29T05:52:13;16.39;74.41
69006;SHT31;56061;51.748;19.620;2022-07-29T05:54:40;16.49;74.12
69006;SHT31;56061;51.748;19.620;2022-07-29T05:57:06;16.60;73.96
69006;SHT31;56061;51.748;19.620;2022-07-29T05:59:36;16.71;73.70
69006;SHT31;56061;51.748;19.620;2022-07-29T06:02:04;16.80;72.87
69006;SHT31;56061;51.748;19.620;2022-07-29T06:04:31;16.89;72.74
69006;SHT31;56061;51.748;19.620;2022-07-29T06:06:59;17.00;72.92
69006;SHT31;56061;51.748;19.620;2022-07-29T06:09:28;17.10;72.42
69006;SHT31;56061;51.748;19.620;2022-07-29T06:11:55;17.23;72.36
69006;SHT31;56061;51.748;19.620;2022-07-29T06:14:22;17.34;71.68
69006;SHT31;56061;51.748;19.620;2022-07-29T06:16:48;17.44;71.38
69006;SHT31;56061;51.748;19.620;2022-07-29T06:19:15;17.55;71.45
69006;SHT31;56061;51.748;19.620;2022-07-29T06:21:42;17.65;71.22
69006;SHT31;56061;51.748;19.620;2022-07-29T06:24:10;17.75;70.56
69006;SHT31;56061;51.748;19.620;2022-07-29T06:26:39;17.89;70.29
69006;SHT31;56061;51.748;19.620;2022-07-29T06:29:07;18.02;70.19
69006;SHT31;56061;51.748;19.620;2022-07-29T06:31:37;18.15;69.31
69006;SHT31;56061;51.748;19.620;2022-07-29T06:34:04;18.28;68.22
69006;SHT31;56061;51.748;19.620;2022-07-29T06:36:33;18.41;67.17
69006;SHT31;56061;51.748;19.620;2022-07-29T06:39:03;18.54;66.70
69006;SHT31;56061;51.748;19.620;2022-07-29T06:41:33;18.68;65.98
69006;SHT31;56061;51.748;19.620;2022-07-29T06:44:00;18.78;66.00
69006;SHT31;56061;51.748;19.620;2022-07-29T06:46:27;18.91;65.78
69006;SHT31;56061;51.748;19.620;2022-07-29T06:48:54;19.04;64.99
69006;SHT31;56061;51.748;19.620;2022-07-29T06:51:21;19.15;64.28
69006;SHT31;56061;51.748;19.620;2022-07-29T06:53:52;19.26;64.44
69006;SHT31;56061;51.748;19.620;2022-07-29T06:56:27;19.38;64.82
69006;SHT31;56061;51.748;19.620;2022-07-29T06:58:54;19.50;64.57
69006;SHT31;56061;51.748;19.620;2022-07-29T07:01:21;19.66;64.12
69006;SHT31;56061;51.748;19.620;2022-07-29T07:03:48;19.81;63.74
69006;SHT31;56061;51.748;19.620;2022-07-29T07:06:14;19.94;62.32
69006;SHT31;56061;51.748;19.620;2022-07-29T07:08:41;20.06;61.82
69006;SHT31;56061;51.748;19.620;2022-07-29T07:11:08;20.21;60.96
69006;SHT31;56061;51.748;19.620;2022-07-29T07:13:34;20.32;60.09
69006;SHT31;56061;51.748;19.620;2022-07-29T07:16:02;20.41;60.50
69006;SHT31;56061;51.748;19.620;2022-07-29T07:18:30;20.53;60.73
69006;SHT31;56061;51.748;19.620;2022-07-29T07:20:56;20.67;60.42
69006;SHT31;56061;51.748;19.620;2022-07-29T07:23:24;20.81;59.72
69006;SHT31;56061;51.748;19.620;2022-07-29T07:25:51;20.94;59.56
69006;SHT31;56061;51.748;19.620;2022-07-29T07:28:18;21.09;59.10
69006;SHT31;56061;51.748;19.620;2022-07-29T07:30:50;21.23;58.87
69006;SHT31;56061;51.748;19.620;2022-07-29T07:33:17;21.35;57.80
69006;SHT31;56061;51.748;19.620;2022-07-29T07:35:44;21.43;57.80
69006;SHT31;56061;51.748;19.620;2022-07-29T07:38:11;21.50;56.87
69006;SHT31;56061;51.748;19.620;2022-07-29T07:40:38;21.54;56.12
69006;SHT31;56061;51.748;19.620;2022-07-29T07:43:06;21.63;55.71
69006;SHT31;56061;51.748;19.620;2022-07-29T07:45:32;21.66;54.84
69006;SHT31;56061;51.748;19.620;2022-07-29T07:48:00;21.72;55.48
69006;SHT31;56061;51.748;19.620;2022-07-29T07:50:26;21.85;54.73
69006;SHT31;56061;51.748;19.620;2022-07-29T07:52:54;21.95;53.90
69006;SHT31;56061;51.748;19.620;2022-07-29T07:55:24;22.07;53.89
69006;SHT31;56061;51.748;19.620;2022-07-29T07:57:52;22.23;54.30
69006;SHT31;56061;51.748;19.620;2022-07-29T08:00:20;22.37;53.15
69006;SHT31;56061;51.748;19.620;2022-07-29T08:02:49;22.45;52.34
69006;SHT31;56061;51.748;19.620;2022-07-29T08:05:16;22.53;53.25
69006;SHT31;56061;51.748;19.620;2022-07-29T08:07:45;22.67;53.20
69006;SHT31;56061;51.748;19.620;2022-07-29T08:10:13;22.75;52.35
69006;SHT31;56061;51.748;19.620;2022-07-29T08:13:06;22.85;52.51
69006;SHT31;56061;51.748;19.620;2022-07-29T08:15:34;22.92;51.99
69006;SHT31;56061;51.748;19.620;2022-07-29T08:18:02;22.99;51.37
69006;SHT31;56061;51.748;19.620;2022-07-29T08:20:34;23.10;51.59
69006;SHT31;56061;51.748;19.620;2022-07-29T08:23:04;23.24;50.33
69006;SHT31;56061;51.748;19.620;2022-07-29T08:25:37;23.34;50.19
69006;SHT31;56061;51.748;19.620;2022-07-29T08:28:07;23.37;48.94
69006;SHT31;56061;51.748;19.620;2022-07-29T08:30:34;23.33;49.29
69006;SHT31;56061;51.748;19.620;2022-07-29T08:33:01;23.37;49.01
69006;SHT31;56061;51.748;19.620;2022-07-29T08:35:28;23.41;48.31
69006;SHT31;56061;51.748;19.620;2022-07-29T08:38:00;23.39;48.22
69006;SHT31;56061;51.748;19.620;2022-07-29T08:40:29;23.34;47.93
69006;SHT31;56061;51.748;19.620;2022-07-29T08:42:58;23.31;48.41
69006;SHT31;56061;51.748;19.620;2022-07-29T08:45:35;23.25;47.90
69006;SHT31;56061;51.748;19.620;2022-07-29T08:48:18;23.24;48.55
69006;SHT31;56061;51.748;19.620;2022-07-29T08:50:48;23.31;48.45
69006;SHT31;56061;51.748;19.620;2022-07-29T08:53:22;23.41;48.33
69006;SHT31;56061;51.748;19.620;2022-07-29T08:55:54;23.43;48.46
69006;SHT31;56061;51.748;19.620;2022-07-29T08:58:22;23.48;48.94
69006;SHT31;56061;51.748;19.620;2022-07-29T09:00:52;23.55;48.44
69006;SHT31;56061;51.748;19.620;2022-07-29T09:03:24;23.63;48.51
69006;SHT31;56061;51.748;19.620;2022-07-29T09:05:58;23.72;48.49
69006;SHT31;56061;51.748;19.620;2022-07-29T09:08:27;23.85;48.60
69006;SHT31;56061;51.748;19.620;2022-07-29T09:10:54;24.04;48.05
69006;SHT31;56061;51.748;19.620;2022-07-29T09:13:25;24.12;47.47
69006;SHT31;56061;51.748;19.620;2022-07-29T09:15:52;24.23;47.97
69006;SHT31;56061;51.748;19.620;2022-07-29T09:18:32;24.40;48.14
69006;SHT31;56061;51.748;19.620;2022-07-29T09:21:04;24.54;48.05
69006;SHT31;56061;51.748;19.620;2022-07-29T09:23:59;24.64;47.68
69006;SHT31;56061;51.748;19.620;2022-07-29T09:26:31;24.63;46.87
69006;SHT31;56061;51.748;19.620;2022-07-29T09:29:15;24.61;47.14
69006;SHT31;56061;51.748;19.620;2022-07-29T09:31:46;24.55;46.10
69006;SHT31;56061;51.748;19.620;2022-07-29T09:34:25;24.47;46.19
69006;SHT31;56061;51.748;19.620;2022-07-29T09:36:57;24.52;46.52
69006;SHT31;56061;51.748;19.620;2022-07-29T09:41:59;24.64;44.91
69006;SHT31;56061;51.748;19.620;2022-07-29T09:44:42;24.68;45.48
69006;SHT31;56061;51.748;19.620;2022-07-29T09:47:18;24.77;45.52
69006;SHT31;56061;51.748;19.620;2022-07-29T09:49:50;24.79;45.09
69006;SHT31;56061;51.748;19.620;2022-07-29T09:52:18;24.87;45.58
69006;SHT31;56061;51.748;19.620;2022-07-29T09:54:45;24.87;44.41
69006;SHT31;56061;51.748;19.620;2022-07-29T09:57:24;24.76;44.25
69006;SHT31;56061;51.748;19.620;2022-07-29T10:00:07;24.68;44.79
69006;SHT31;56061;51.748;19.620;2022-07-29T10:02:45;24.74;44.99
69006;SHT31;56061;51.748;19.620;2022-07-29T10:05:18;24.85;44.96
69006;SHT31;56061;51.748;19.620;2022-07-29T10:07:52;24.93;45.18
69006;SHT31;56061;51.748;19.620;2022-07-29T10:13:01;25.20;45.75
69006;SHT31;56061;51.748;19.620;2022-07-29T10:15:40;25.41;44.92
69006;SHT31;56061;51.748;19.620;2022-07-29T10:18:11;25.51;43.55
69006;SHT31;56061;51.748;19.620;2022-07-29T10:20:40;25.50;43.85
69006;SHT31;56061;51.748;19.620;2022-07-29T10:23:08;25.60;44.19
69006;SHT31;56061;51.748;19.620;2022-07-29T10:25:35;25.73;43.37
69006;SHT31;56061;51.748;19.620;2022-07-29T10:28:03;25.83;44.17
69006;SHT31;56061;51.748;19.620;2022-07-29T10:30:32;25.86;43.59
69006;SHT31;56061;51.748;19.620;2022-07-29T10:36:10;25.79;43.15
69006;SHT31;56061;51.748;19.620;2022-07-29T10:38:51;25.76;43.63
69006;SHT31;56061;51.748;19.620;2022-07-29T10:41:50;25.70;43.10
69006;SHT31;56061;51.748;19.620;2022-07-29T10:44:34;25.66;43.35
69006;SHT31;56061;51.748;19.620;2022-07-29T10:47:06;25.68;43.86
69006;SHT31;56061;51.748;19.620;2022-07-29T10:49:35;25.81;44.72
69006;SHT31;56061;51.748;19.620;2022-07-29T10:52:07;25.98;44.28
69006;SHT31;56061;51.748;19.620;2022-07-29T11:02:42;25.63;43.33
69006;SHT31;56061;51.748;19.620;2022-07-29T11:05:12;25.68;43.72
69006;SHT31;56061;51.748;19.620;2022-07-29T11:10:46;25.94;44.05
69006;SHT31;56061;51.748;19.620;2022-07-29T11:16:11;26.24;43.40
69006;SHT31;56061;51.748;19.620;2022-07-29T11:19:18;26.42;42.24
69006;SHT31;56061;51.748;19.620;2022-07-29T11:21:57;26.45;40.79
69006;SHT31;56061;51.748;19.620;2022-07-29T11:24:28;26.39;41.21
69006;SHT31;56061;51.748;19.620;2022-07-29T11:29:49;26.54;40.45
69006;SHT31;56061;51.748;19.620;2022-07-29T11:32:24;26.60;39.88
69006;SHT31;56061;51.748;19.620;2022-07-29T11:38:24;26.65;40.36
69006;SHT31;56061;51.748;19.620;2022-07-29T11:43:53;26.82;40.19
69006;SHT31;56061;51.748;19.620;2022-07-29T11:49:21;26.84;40.10
69006;SHT31;56061;51.748;19.620;2022-07-29T11:51:58;26.87;39.81
69006;SHT31;56061;51.748;19.620;2022-07-29T11:54:33;26.84;39.65
69006;SHT31;56061;51.748;19.620;2022-07-29T11:57:21;26.69;39.63
69006;SHT31;56061;51.748;19.620;2022-07-29T12:00:03;26.51;39.09
69006;SHT31;56061;51.748;19.620;2022-07-29T12:02:41;26.32;40.31
69006;SHT31;56061;51.748;19.620;2022-07-29T12:05:14;26.39;41.33
69006;SHT31;56061;51.748;19.620;2022-07-29T12:08:17;26.54;41.12
69006;SHT31;56061;51.748;19.620;2022-07-29T12:10:48;26.58;40.82
69006;SHT31;56061;51.748;19.620;2022-07-29T12:13:19;26.61;40.99
69006;SHT31;56061;51.748;19.620;2022-07-29T12:15:54;26.64;40.83
69006;SHT31;56061;51.748;19.620;2022-07-29T12:18:25;26.74;41.13
69006;SHT31;56061;51.748;19.620;2022-07-29T12:20:56;26.85;41.36
69006;SHT31;56061;51.748;19.620;2022-07-29T12:23:29;26.94;41.67
69006;SHT31;56061;51.748;19.620;2022-07-29T12:26:00;27.04;41.04
69006;SHT31;56061;51.748;19.620;2022-07-29T12:28:38;27.08;41.19
69006;SHT31;56061;51.748;19.620;2022-07-29T12:31:05;27.16;41.45
69006;SHT31;56061;51.748;19.620;2022-07-29T12:33:39;27.26;41.21
69006;SHT31;56061;51.748;19.620;2022-07-29T12:36:06;27.32;41.21
69006;SHT31;56061;51.748;19.620;2022-07-29T12:38:43;27.33;41.21
69006;SHT31;56061;51.748;19.620;2022-07-29T12:41:11;27.14;40.85
69006;SHT31;56061;51.748;19.620;2022-07-29T12:43:45;27.03;41.75
69006;SHT31;56061;51.748;19.620;2022-07-29T12:46:20;27.00;42.17
69006;SHT31;56061;51.748;19.620;2022-07-29T12:48:50;27.04;42.12
69006;SHT31;56061;51.748;19.620;2022-07-29T12:51:29;27.06;42.15
69006;SHT31;56061;51.748;19.620;2022-07-29T12:54:08;27.02;41.90
69006;SHT31;56061;51.748;19.620;2022-07-29T12:56:39;27.01;42.23
69006;SHT31;56061;51.748;19.620;2022-07-29T12:59:14;27.00;42.43
69006;SHT31;56061;51.748;19.620;2022-07-29T13:01:49;27.00;42.64
69006;SHT31;56061;51.748;19.620;2022-07-29T13:04:32;27.06;43.26
69006;SHT31;56061;51.748;19.620;2022-07-29T13:07:05;27.02;41.78
69006;SHT31;56061;51.748;19.620;2022-07-29T13:09:39;26.99;42.60
69006;SHT31;56061;51.748;19.620;2022-07-29T13:12:12;27.03;42.02
69006;SHT31;56061;51.748;19.620;2022-07-29T13:14:41;27.08;42.86
69006;SHT31;56061;51.748;19.620;2022-07-29T13:17:12;27.26;42.89
69006;SHT31;56061;51.748;19.620;2022-07-29T13:19:47;27.38;42.27
69006;SHT31;56061;51.748;19.620;2022-07-29T13:22:21;27.33;41.82
69006;SHT31;56061;51.748;19.620;2022-07-29T13:24:51;27.32;42.50
69006;SHT31;56061;51.748;19.620;2022-07-29T13:27:23;27.37;42.15
69006;SHT31;56061;51.748;19.620;2022-07-29T13:29:56;27.38;42.59
69006;SHT31;56061;51.748;19.620;2022-07-29T13:32:27;27.41;42.70
69006;SHT31;56061;51.748;19.620;2022-07-29T13:34:56;27.35;42.31
69006;SHT31;56061;51.748;19.620;2022-07-29T13:37:30;27.31;42.06
69006;SHT31;56061;51.748;19.620;2022-07-29T13:40:00;27.28;42.32
69006;SHT31;56061;51.748;19.620;2022-07-29T13:42:29;27.39;42.51
69006;SHT31;56061;51.748;19.620;2022-07-29T13:44:59;27.48;42.32
69006;SHT31;56061;51.748;19.620;2022-07-29T13:47:27;27.50;42.79
69006;SHT31;56061;51.748;19.620;2022-07-29T13:49:58;27.58;42.70
69006;SHT31;56061;51.748;19.620;2022-07-29T13:52:27;27.60;42.06
69006;SHT31;56061;51.748;19.620;2022-07-29T13:54:55;27.59;42.48
69006;SHT31;56061;51.748;19.620;2022-07-29T13:57:22;27.60;42.46
69006;SHT31;56061;51.748;19.620;2022-07-29T13:59:48;27.62;43.01
69006;SHT31;56061;51.748;19.620;2022-07-29T14:02:20;27.68;43.27
69006;SHT31;56061;51.748;19.620;2022-07-29T14:04:52;27.74;42.33
69006;SHT31;56061;51.748;19.620;2022-07-29T14:07:21;27.66;42.05
69006;SHT31;56061;51.748;19.620;2022-07-29T14:09:48;27.44;41.91
69006;SHT31;56061;51.748;19.620;2022-07-29T14:12:16;27.26;42.17
69006;SHT31;56061;51.748;19.620;2022-07-29T14:14:42;27.07;42.54
69006;SHT31;56061;51.748;19.620;2022-07-29T14:17:12;26.92;43.08
69006;SHT31;56061;51.748;19.620;2022-07-29T14:19:41;26.89;43.27
69006;SHT31;56061;51.748;19.620;2022-07-29T14:22:08;26.88;43.43
69006;SHT31;56061;51.748;19.620;2022-07-29T14:24:36;26.82;43.05
69006;SHT31;56061;51.748;19.620;2022-07-29T14:27:04;26.71;43.02
69006;SHT31;56061;51.748;19.620;2022-07-29T14:29:33;26.54;42.83
69006;SHT31;56061;51.748;19.620;2022-07-29T14:32:07;26.40;42.73
69006;SHT31;56061;51.748;19.620;2022-07-29T14:34:36;26.24;42.99
69006;SHT31;56061;51.748;19.620;2022-07-29T14:37:04;26.08;43.20
69006;SHT31;56061;51.748;19.620;2022-07-29T14:39:33;25.92;44.06
69006;SHT31;56061;51.748;19.620;2022-07-29T14:42:08;25.87;44.26
69006;SHT31;56061;51.748;19.620;2022-07-29T14:44:38;25.87;44.26
69006;SHT31;56061;51.748;19.620;2022-07-29T14:47:07;25.91;44.72
69006;SHT31;56061;51.748;19.620;2022-07-29T14:49:35;25.96;45.34
69006;SHT31;56061;51.748;19.620;2022-07-29T14:52:03;26.04;45.21
69006;SHT31;56061;51.748;19.620;2022-07-29T14:54:30;26.13;44.86
69006;SHT31;56061;51.748;19.620;2022-07-29T14:56:57;26.14;44.39
69006;SHT31;56061;51.748;19.620;2022-07-29T14:59:25;26.09;44.29
69006;SHT31;56061;51.748;19.620;2022-07-29T15:01:52;26.11;44.50
69006;SHT31;56061;51.748;19.620;2022-07-29T15:04:19;26.19;44.46
69006;SHT31;56061;51.748;19.620;2022-07-29T15:06:47;26.24;44.64
69006;SHT31;56061;51.748;19.620;2022-07-29T15:09:18;26.29;44.61
69006;SHT31;56061;51.748;19.620;2022-07-29T15:11:44;26.31;44.23
69006;SHT31;56061;51.748;19.620;2022-07-29T15:14:11;26.30;44.45
69006;SHT31;56061;51.748;19.620;2022-07-29T15:16:37;26.30;44.25
69006;SHT31;56061;51.748;19.620;2022-07-29T15:19:09;26.28;44.21
69006;SHT31;56061;51.748;19.620;2022-07-29T15:21:37;26.22;44.29
69006;SHT31;56061;51.748;19.620;2022-07-29T15:24:14;26.18;44.60
69006;SHT31;56061;51.748;19.620;2022-07-29T15:26:43;26.16;44.54
69006;SHT31;56061;51.748;19.620;2022-07-29T15:29:10;26.10;44.67
69006;SHT31;56061;51.748;19.620;2022-07-29T15:31:45;26.06;44.88
69006;SHT31;56061;51.748;19.620;2022-07-29T15:34:12;26.03;45.18
69006;SHT31;56061;51.748;19.620;2022-07-29T15:36:39;25.96;45.27
69006;SHT31;56061;51.748;19.620;2022-07-29T15:39:23;25.90;44.86
69006;SHT31;56061;51.748;19.620;2022-07-29T15:41:50;25.87;45.48
69006;SHT31;56061;51.748;19.620;2022-07-29T15:44:17;25.86;45.60
69006;SHT31;56061;51.748;19.620;2022-07-29T15:46:46;25.84;45.25
69006;SHT31;56061;51.748;19.620;2022-07-29T15:52:14;25.86;44.97
69006;SHT31;56061;51.748;19.620;2022-07-29T15:54:51;25.85;44.90
69006;SHT31;56061;51.748;19.620;2022-07-29T15:57:23;25.83;45.24
69006;SHT31;56061;51.748;19.620;2022-07-29T15:59:51;25.83;45.31
69006;SHT31;56061;51.748;19.620;2022-07-29T16:02:17;25.86;45.54
69006;SHT31;56061;51.748;19.620;2022-07-29T16:04:45;25.97;45.26
69006;SHT31;56061;51.748;19.620;2022-07-29T16:07:12;26.11;45.28
69006;SHT31;56061;51.748;19.620;2022-07-29T16:09:40;26.32;45.23
69006;SHT31;56061;51.748;19.620;2022-07-29T16:12:08;26.53;45.01
69006;SHT31;56061;51.748;19.620;2022-07-29T16:14:41;26.51;44.52
69006;SHT31;56061;51.748;19.620;2022-07-29T16:17:09;26.40;44.84
69006;SHT31;56061;51.748;19.620;2022-07-29T16:19:40;26.29;44.75
69006;SHT31;56061;51.748;19.620;2022-07-29T16:22:11;26.18;44.59
69006;SHT31;56061;51.748;19.620;2022-07-29T16:24:44;26.07;44.62
69006;SHT31;56061;51.748;19.620;2022-07-29T16:27:11;26.00;44.68
69006;SHT31;56061;51.748;19.620;2022-07-29T16:29:38;25.97;44.56
69006;SHT31;56061;51.748;19.620;2022-07-29T16:32:05;25.94;44.62
69006;SHT31;56061;51.748;19.620;2022-07-29T16:34:32;25.90;44.85